Time;durP1;ratioP1;P1;durP2;ratioP2;P2;SDS_P1;SDS_P2;PMS_P1;PMS_P2;Temp;Humidity;BMP_temperature;BMP_pressure;BME280_temperature;BME280_humidity;BME280_pressure;Samples;Min_cycle;Max_cycle;Signal;HPM_P1;HPM_P2
2022/11/18 00:01:31;;;;;;;6.13;2.43;;;9.10;99.90;;;;;;4897365;29;37038;-75
2022/11/18 00:03:57;;;;;;;5.00;2.00;;;9.10;99.90;;;;;;4893857;29;38585;-76
2022/11/18 00:06:26;;;;;;;7.53;2.27;;;9.10;99.90;;;;;;4904862;29;36673;-76
2022/11/18 00:08:53;;;;;;;7.63;3.00;;;9.10;99.90;;;;;;4899563;29;37835;-76
2022/11/18 00:14:17;;;;;;;8.63;2.20;;;9.00;99.90;;;;;;4896140;29;38506;-76
2022/11/18 00:16:53;;;;;;;4.77;2.20;;;9.00;99.90;;;;;;4898754;29;37184;-76
2022/11/18 00:19:31;;;;;;;3.63;2.43;;;9.00;99.90;;;;;;4895537;29;39605;-75
2022/11/18 00:21:58;;;;;;;5.83;2.67;;;8.90;99.90;;;;;;4895654;29;38163;-75
2022/11/18 00:24:25;;;;;;;3.77;2.50;;;8.90;99.90;;;;;;4895569;29;39044;-76
2022/11/18 00:26:51;;;;;;;5.20;2.23;;;8.90;99.90;;;;;;4891570;29;37531;-75
2022/11/18 00:29:18;;;;;;;6.67;2.50;;;9.00;99.90;;;;;;4904765;29;38212;-75
2022/11/18 00:31:44;;;;;;;3.40;2.40;;;9.00;99.90;;;;;;4887258;29;38292;-75
2022/11/18 00:34:12;;;;;;;7.33;2.80;;;8.90;99.90;;;;;;4909343;29;36382;-75
2022/11/18 00:36:39;;;;;;;5.80;2.37;;;8.90;99.90;;;;;;4892951;29;37618;-75
2022/11/18 00:39:06;;;;;;;5.80;2.77;;;9.00;99.90;;;;;;4903740;29;39098;-74
2022/11/18 00:44:17;;;;;;;9.23;3.47;;;8.90;99.90;;;;;;4892066;28;38483;-75
2022/11/18 00:46:44;;;;;;;8.87;3.10;;;9.00;99.90;;;;;;4908057;29;37034;-75
2022/11/18 00:49:10;;;;;;;3.93;2.60;;;9.00;99.90;;;;;;4890307;29;38686;-75
2022/11/18 00:51:36;;;;;;;6.83;3.10;;;9.00;99.90;;;;;;4899384;29;37151;-76
2022/11/18 00:54:03;;;;;;;9.13;3.60;;;9.00;99.90;;;;;;4908447;29;37760;-76
2022/11/18 00:56:29;;;;;;;7.47;3.10;;;9.00;99.90;;;;;;4909770;29;36844;-75
2022/11/18 00:58:55;;;;;;;6.53;3.40;;;9.00;99.90;;;;;;4895352;29;37836;-76
2022/11/18 01:01:21;;;;;;;9.47;3.40;;;9.00;99.90;;;;;;4891344;29;39379;-76
2022/11/18 01:03:47;;;;;;;8.67;3.50;;;8.90;99.90;;;;;;4894022;29;36494;-76
2022/11/18 01:06:13;;;;;;;7.30;3.50;;;8.90;99.90;;;;;;4892447;29;36094;-75
2022/11/18 01:08:39;;;;;;;7.73;4.20;;;8.80;99.90;;;;;;4897779;28;37018;-76
2022/11/18 01:13:51;;;;;;;7.97;4.00;;;8.80;99.90;;;;;;4895000;29;38995;-75
2022/11/18 01:16:20;;;;;;;9.73;4.00;;;8.80;99.90;;;;;;4895029;29;38314;-76
2022/11/18 01:18:46;;;;;;;8.43;4.20;;;8.70;99.90;;;;;;4894903;29;39660;-75
2022/11/18 01:21:12;;;;;;;7.03;4.53;;;8.70;99.90;;;;;;4890891;29;37771;-76
2022/11/18 01:23:38;;;;;;;7.23;3.67;;;8.70;99.90;;;;;;4891727;29;37841;-76
2022/11/18 01:26:08;;;;;;;9.83;4.77;;;8.60;99.90;;;;;;4891260;29;37347;-76
2022/11/18 01:28:34;;;;;;;9.23;4.77;;;8.60;99.90;;;;;;4906420;29;38510;-76
2022/11/18 01:31:11;;;;;;;9.83;4.97;;;8.60;99.90;;;;;;4907706;29;39221;-76
2022/11/18 01:33:37;;;;;;;8.97;4.97;;;8.50;99.90;;;;;;4907039;29;47235;-76
2022/11/18 01:36:23;;;;;;;8.53;5.53;;;8.50;99.90;;;;;;4887663;29;35883;-76
2022/11/18 01:38:50;;;;;;;8.53;4.73;;;8.50;99.90;;;;;;4887361;29;49141;-75
2022/11/18 01:41:18;;;;;;;10.27;4.97;;;8.50;99.90;;;;;;4891708;29;40061;-75
2022/11/18 01:43:53;;;;;;;9.93;4.77;;;8.40;99.90;;;;;;4909777;29;36871;-76
2022/11/18 01:46:21;;;;;;;10.33;5.37;;;8.40;99.90;;;;;;4905059;29;35613;-76
2022/11/18 01:48:52;;;;;;;10.40;5.50;;;8.40;99.90;;;;;;4894734;29;37478;-76
2022/11/18 01:51:23;;;;;;;8.13;5.07;;;8.40;99.90;;;;;;4895096;29;37110;-76
2022/11/18 01:53:58;;;;;;;9.67;5.43;;;8.40;99.90;;;;;;4895533;29;36874;-76
2022/11/18 01:56:38;;;;;;;10.47;5.50;;;8.40;99.90;;;;;;4891771;29;38772;-76
2022/11/18 01:59:10;;;;;;;15.30;5.63;;;8.50;99.90;;;;;;4888241;29;37474;-76
2022/11/18 02:04:08;;;;;;;11.73;5.43;;;8.60;99.90;;;;;;4868275;29;21118;-75
2022/11/18 02:06:35;;;;;;;12.10;5.37;;;8.60;99.90;;;;;;4862646;29;37494;-74
2022/11/18 02:09:01;;;;;;;9.30;5.63;;;8.60;99.90;;;;;;4879869;29;39420;-74
2022/11/18 02:14:12;;;;;;;11.83;5.73;;;8.60;99.90;;;;;;4883277;29;38468;-75
2022/11/18 02:16:51;;;;;;;9.13;5.23;;;8.60;99.90;;;;;;4882512;29;35578;-75
2022/11/18 02:19:35;;;;;;;12.63;5.30;;;8.60;99.90;;;;;;4883398;29;39172;-75
2022/11/18 02:22:30;;;;;;;14.10;5.63;;;8.60;99.90;;;;;;4872996;29;37268;-75
2022/11/18 02:25:14;;;;;;;9.77;4.80;;;8.60;99.90;;;;;;4883911;29;49136;-75
2022/11/18 02:28:02;;;;;;;7.07;4.83;;;8.60;99.90;;;;;;4881153;29;48910;-75
2022/11/18 02:30:33;;;;;;;12.13;5.73;;;8.60;99.90;;;;;;4883754;29;37935;-74
2022/11/18 02:32:59;;;;;;;8.23;4.97;;;8.50;99.90;;;;;;4886456;29;36849;-73
2022/11/18 02:35:46;;;;;;;9.93;5.10;;;8.50;99.90;;;;;;4884165;29;37190;-76
2022/11/18 02:38:27;;;;;;;8.40;5.13;;;8.50;99.90;;;;;;4885733;29;36837;-75
2022/11/18 02:40:58;;;;;;;10.73;5.03;;;8.50;99.90;;;;;;4883379;29;37310;-74
2022/11/18 02:43:32;;;;;;;11.83;5.20;;;8.50;99.90;;;;;;4887454;29;40161;-74
2022/11/18 02:46:06;;;;;;;9.57;5.47;;;8.50;99.90;;;;;;4872260;29;36869;-74
2022/11/18 02:48:37;;;;;;;8.30;5.10;;;8.50;99.90;;;;;;4883947;29;47443;-74
2022/11/18 02:51:06;;;;;;;10.67;5.10;;;8.40;99.90;;;;;;4889594;29;38617;-74
2022/11/18 02:53:33;;;;;;;9.83;5.67;;;8.40;99.90;;;;;;4883699;29;47363;-74
2022/11/18 02:56:02;;;;;;;9.63;5.13;;;8.50;99.90;;;;;;4890498;29;37921;-73
2022/11/18 02:58:28;;;;;;;6.17;4.87;;;8.50;99.90;;;;;;4888597;29;35816;-74
2022/11/18 03:00:57;;;;;;;8.73;5.30;;;8.50;99.90;;;;;;4873999;29;37640;-75
2022/11/18 03:03:34;;;;;;;12.87;5.13;;;8.50;99.90;;;;;;4884030;29;37449;-73
2022/11/18 03:06:03;;;;;;;9.60;5.40;;;8.50;99.90;;;;;;4887065;29;37912;-76
2022/11/18 03:08:37;;;;;;;10.83;5.23;;;8.50;99.90;;;;;;4888762;29;37640;-73
2022/11/18 03:11:27;;;;;;;10.23;5.27;;;8.60;99.90;;;;;;4888275;29;37670;-76
2022/11/18 03:14:21;;;;;;;10.93;5.30;;;8.70;99.90;;;;;;4888747;29;49340;-75
2022/11/18 03:16:57;;;;;;;14.33;5.63;;;8.80;99.90;;;;;;4883553;29;46780;-74
2022/11/18 03:19:38;;;;;;;13.67;6.00;;;8.90;99.90;;;;;;4888860;29;37320;-75
2022/11/18 03:22:09;;;;;;;15.67;5.13;;;8.90;99.90;;;;;;4880796;29;37388;-75
2022/11/18 03:24:40;;;;;;;12.32;5.05;;;8.90;99.90;;;;;;4881321;29;37440;-74
2022/11/18 03:27:20;;;;;;;10.53;5.13;;;8.90;99.90;;;;;;4883765;29;38039;-75
2022/11/18 03:30:01;;;;;;;9.73;5.17;;;8.90;99.90;;;;;;4889506;29;35565;-73
2022/11/18 03:32:30;;;;;;;9.90;5.40;;;8.90;99.90;;;;;;4888606;29;38925;-75
2022/11/18 03:35:01;;;;;;;15.77;6.00;;;8.90;99.90;;;;;;4884341;29;36901;-74
2022/11/18 03:37:29;;;;;;;10.40;5.10;;;8.90;99.90;;;;;;4887242;29;38688;-75
2022/11/18 03:40:18;;;;;;;10.80;5.70;;;8.90;99.90;;;;;;4887285;29;37123;-74
2022/11/18 03:42:49;;;;;;;14.93;6.87;;;8.90;99.90;;;;;;4869152;29;46909;-74
2022/11/18 03:45:18;;;;;;;15.40;6.53;;;9.00;99.90;;;;;;4870545;29;38713;-74
2022/11/18 03:47:59;;;;;;;8.70;5.50;;;8.90;99.90;;;;;;4888419;29;37836;-75
2022/11/18 03:50:30;;;;;;;10.73;5.90;;;8.90;99.90;;;;;;4889857;29;36236;-73
2022/11/18 03:52:58;;;;;;;9.30;5.73;;;8.90;99.90;;;;;;4886821;29;38299;-75
2022/11/18 03:55:31;;;;;;;13.10;6.27;;;8.90;99.90;;;;;;4889287;29;38998;-74
2022/11/18 03:58:06;;;;;;;12.15;5.65;;;8.90;99.90;;;;;;4889680;29;39219;-75
2022/11/18 04:00:38;;;;;;;9.47;5.13;;;8.90;99.90;;;;;;4878033;29;47515;-74
2022/11/18 04:03:04;;;;;;;10.17;5.10;;;8.80;99.90;;;;;;4886673;29;39572;-74
2022/11/18 04:05:37;;;;;;;13.53;5.60;;;8.80;99.90;;;;;;4889978;29;37643;-74
2022/11/18 04:08:15;;;;;;;13.63;5.73;;;8.80;99.90;;;;;;4882753;29;38149;-74
2022/11/18 04:10:54;;;;;;;10.33;4.73;;;8.80;99.90;;;;;;4884597;29;37529;-75
2022/11/18 04:13:32;;;;;;;16.73;5.30;;;8.80;99.90;;;;;;4866489;29;38593;-75
2022/11/18 04:15:59;;;;;;;9.83;4.97;;;8.70;99.90;;;;;;4870870;29;37401;-74
2022/11/18 04:18:26;;;;;;;13.07;5.93;;;8.70;99.90;;;;;;4873351;29;37238;-74
2022/11/18 04:20:53;;;;;;;12.23;5.60;;;8.70;99.90;;;;;;4894024;29;37505;-74
2022/11/18 04:23:19;;;;;;;15.07;5.00;;;8.70;99.90;;;;;;4875934;29;36565;-74
2022/11/18 04:25:45;;;;;;;12.00;4.70;;;8.70;99.90;;;;;;4875097;29;37359;-75
2022/11/18 04:28:11;;;;;;;8.20;4.40;;;8.70;99.90;;;;;;4890996;29;38716;-74
2022/11/18 04:30:37;;;;;;;12.93;4.57;;;8.70;99.90;;;;;;4894125;29;36732;-75
2022/11/18 04:33:04;;;;;;;11.97;4.70;;;8.70;99.90;;;;;;4888817;29;38453;-74
2022/11/18 04:35:30;;;;;;;17.33;4.80;;;8.70;99.90;;;;;;4872815;29;38189;-74
2022/11/18 04:37:56;;;;;;;16.70;5.30;;;8.70;99.90;;;;;;4894800;29;36897;-73
2022/11/18 04:40:22;;;;;;;10.97;4.90;;;8.60;99.90;;;;;;4888158;29;38624;-75
2022/11/18 04:42:48;;;;;;;9.03;4.50;;;8.60;99.90;;;;;;4887506;29;38855;-75
2022/11/18 04:45:14;;;;;;;7.37;4.37;;;8.70;99.90;;;;;;4888209;29;38065;-74
2022/11/18 04:47:40;;;;;;;13.07;4.40;;;8.60;99.90;;;;;;4891392;29;38507;-73
2022/11/18 04:50:06;;;;;;;10.13;4.97;;;8.60;99.90;;;;;;4891454;29;36871;-75
2022/11/18 04:52:32;;;;;;;12.20;4.90;;;8.60;99.90;;;;;;4886736;29;40186;-76
2022/11/18 04:54:58;;;;;;;8.07;4.47;;;8.60;99.90;;;;;;4889184;29;38435;-75
2022/11/18 04:57:25;;;;;;;9.53;4.33;;;8.60;99.90;;;;;;4887527;29;38850;-74
2022/11/18 04:59:51;;;;;;;9.47;4.23;;;8.60;99.90;;;;;;4868515;29;37710;-74
2022/11/18 05:02:17;;;;;;;8.10;4.07;;;8.50;99.90;;;;;;4867450;29;37723;-75
2022/11/18 05:04:43;;;;;;;10.13;4.13;;;8.50;99.90;;;;;;4892633;29;37714;-74
2022/11/18 05:07:14;;;;;;;12.37;4.33;;;8.50;99.90;;;;;;4891589;29;40033;-74
2022/11/18 05:09:40;;;;;;;10.07;3.73;;;8.50;99.90;;;;;;4895636;29;38207;-74
2022/11/18 05:14:55;;;;;;;13.30;4.23;;;8.50;99.90;;;;;;4890103;29;39971;-74
2022/11/18 05:17:21;;;;;;;13.37;4.10;;;8.60;99.90;;;;;;4894909;29;37774;-75
2022/11/18 05:19:47;;;;;;;12.17;4.00;;;8.50;99.90;;;;;;4896267;29;35996;-75
2022/11/18 05:22:14;;;;;;;9.80;4.20;;;8.50;99.90;;;;;;4893630;29;38281;-74
2022/11/18 05:24:40;;;;;;;9.53;3.67;;;8.40;99.90;;;;;;4892625;29;36855;-74
2022/11/18 05:27:06;;;;;;;9.33;3.67;;;8.50;99.90;;;;;;4891886;29;38235;-74
2022/11/18 05:29:32;;;;;;;11.00;3.90;;;8.40;99.90;;;;;;4890271;29;37334;-74
2022/11/18 05:31:59;;;;;;;12.00;3.50;;;8.50;99.90;;;;;;4893863;29;40050;-75
2022/11/18 05:34:25;;;;;;;6.27;3.33;;;8.40;99.90;;;;;;4893727;29;38486;-75
2022/11/18 05:36:51;;;;;;;16.77;4.57;;;8.40;99.90;;;;;;4882451;29;36775;-74
2022/11/18 05:39:17;;;;;;;13.17;3.77;;;8.40;99.90;;;;;;4891452;29;36729;-74
2022/11/18 05:44:28;;;;;;;18.30;4.50;;;8.30;99.90;;;;;;4887636;29;47961;-76
2022/11/18 05:46:56;;;;;;;10.33;4.30;;;8.20;99.90;;;;;;4889017;29;38902;-75
2022/11/18 05:49:22;;;;;;;12.47;4.53;;;8.20;99.90;;;;;;4870693;29;36432;-74
2022/11/18 05:51:49;;;;;;;12.10;4.27;;;8.20;99.90;;;;;;4887039;29;38906;-74
2022/11/18 05:54:17;;;;;;;13.50;5.10;;;8.20;99.90;;;;;;4887412;29;40037;-76
2022/11/18 05:56:44;;;;;;;11.87;4.80;;;8.20;99.90;;;;;;4888470;29;36063;-74
2022/11/18 05:59:12;;;;;;;9.83;4.93;;;8.20;99.90;;;;;;4891165;29;37153;-74
2022/11/18 06:01:41;;;;;;;11.73;4.80;;;8.20;99.90;;;;;;4887956;29;37776;-74
2022/11/18 06:04:24;;;;;;;12.33;4.43;;;8.20;99.90;;;;;;4887729;29;36665;-74
2022/11/18 06:06:52;;;;;;;7.82;3.20;;;8.30;99.90;;;;;;4869529;29;37375;-74
2022/11/18 06:09:24;;;;;;;14.73;4.67;;;8.20;99.90;;;;;;4884702;29;36911;-74
2022/11/18 06:11:56;;;;;;;10.68;3.53;;;8.30;99.90;;;;;;4871207;29;37647;-74
2022/11/18 06:14:36;;;;;;;10.35;3.95;;;8.20;99.90;;;;;;4887652;29;39068;-73
2022/11/18 06:17:07;;;;;;;13.27;4.10;;;8.30;99.90;;;;;;4888543;29;39937;-75
2022/11/18 06:19:34;;;;;;;15.17;4.07;;;8.30;99.90;;;;;;4868502;29;35935;-74
2022/11/18 06:22:01;;;;;;;8.33;3.47;;;8.30;99.90;;;;;;4886366;29;37451;-73
2022/11/18 06:24:27;;;;;;;11.07;4.30;;;8.40;99.90;;;;;;4889728;29;37359;-74
2022/11/18 06:26:53;;;;;;;11.23;3.70;;;8.40;99.90;;;;;;4893241;29;38165;-71
2022/11/18 06:29:20;;;;;;;11.57;3.97;;;8.40;99.90;;;;;;4894936;29;38027;-72
2022/11/18 06:31:46;;;;;;;16.33;3.40;;;8.40;99.90;;;;;;4887370;29;38955;-73
2022/11/18 06:34:13;;;;;;;9.73;3.50;;;8.50;99.90;;;;;;4889826;29;39451;-73
2022/11/18 06:36:39;;;;;;;11.60;4.37;;;8.50;99.90;;;;;;4896397;29;38176;-74
2022/11/18 06:39:05;;;;;;;14.87;3.90;;;8.50;99.90;;;;;;4895751;29;36995;-75
2022/11/18 06:41:32;;;;;;;8.53;3.93;;;8.50;99.90;;;;;;4891970;29;37602;-73
2022/11/18 06:43:59;;;;;;;15.70;4.83;;;8.50;99.90;;;;;;4891384;29;39561;-73
2022/11/18 06:49:10;;;;;;;16.03;3.77;;;8.50;99.90;;;;;;4886373;29;37595;-72
2022/11/18 06:51:37;;;;;;;12.00;4.67;;;8.50;99.90;;;;;;4893328;29;39617;-76
2022/11/18 06:54:04;;;;;;;14.23;4.70;;;8.60;99.90;;;;;;4890891;29;39412;-74
2022/11/18 06:56:30;;;;;;;13.30;3.80;;;8.50;99.90;;;;;;4891181;29;39018;-73
2022/11/18 06:58:57;;;;;;;9.20;3.97;;;8.60;99.90;;;;;;4874753;29;37536;-72
2022/11/18 07:01:26;;;;;;;11.17;3.57;;;8.60;99.90;;;;;;4891571;29;39499;-73
2022/11/18 07:03:53;;;;;;;16.30;4.30;;;8.60;99.90;;;;;;4893322;29;36754;-72
2022/11/18 07:06:21;;;;;;;13.73;3.67;;;8.60;99.90;;;;;;4896120;29;37809;-73
2022/11/18 07:08:48;;;;;;;13.47;4.50;;;8.60;99.90;;;;;;4889547;29;37371;-73
2022/11/18 07:11:17;;;;;;;11.50;4.47;;;8.60;99.90;;;;;;4904758;29;37488;-73
2022/11/18 07:13:44;;;;;;;13.70;4.67;;;8.70;99.90;;;;;;4894493;29;38092;-73
2022/11/18 07:16:14;;;;;;;10.37;4.50;;;8.70;99.90;;;;;;4875242;29;38240;-74
2022/11/18 07:18:42;;;;;;;9.73;4.60;;;8.60;99.90;;;;;;4894850;29;37089;-73
2022/11/18 07:21:14;;;;;;;14.20;4.50;;;8.60;99.90;;;;;;4878915;29;38657;-75
2022/11/18 07:23:40;;;;;;;13.30;4.27;;;8.60;99.90;;;;;;4892301;29;39097;-73
2022/11/18 07:26:07;;;;;;;13.83;4.50;;;8.60;99.90;;;;;;4895371;29;36952;-74
2022/11/18 07:28:33;;;;;;;14.57;4.70;;;8.60;99.90;;;;;;4890370;29;38222;-73
2022/11/18 07:31:10;;;;;;;15.20;4.63;;;8.60;99.90;;;;;;4894292;29;39153;-72
2022/11/18 07:33:38;;;;;;;10.83;4.43;;;8.60;99.90;;;;;;4895098;29;46914;-73
2022/11/18 07:36:13;;;;;;;13.63;4.03;;;8.60;99.90;;;;;;4896098;29;38390;-74
2022/11/18 07:38:39;;;;;;;12.57;4.50;;;8.60;99.90;;;;;;4876171;29;47233;-73
2022/11/18 07:41:11;;;;;;;16.23;4.43;;;8.60;99.90;;;;;;4899136;29;39180;-73
2022/11/18 07:43:38;;;;;;;10.98;4.50;;;8.60;99.90;;;;;;4891307;29;47129;-73
2022/11/18 07:46:16;;;;;;;9.60;3.87;;;8.70;99.90;;;;;;4905653;29;36947;-73
2022/11/18 07:48:43;;;;;;;13.27;4.10;;;8.70;99.90;;;;;;4891167;29;48450;-73
2022/11/18 07:51:10;;;;;;;12.07;4.03;;;8.70;99.90;;;;;;4874052;29;38565;-72
2022/11/18 07:53:37;;;;;;;11.87;3.80;;;8.70;99.90;;;;;;4875531;29;37697;-72
2022/11/18 07:56:04;;;;;;;11.70;4.00;;;8.70;99.90;;;;;;4887624;29;38578;-73
2022/11/18 07:58:30;;;;;;;13.57;3.57;;;8.70;99.90;;;;;;4886782;29;38202;-73
2022/11/18 08:00:56;;;;;;;12.03;3.50;;;8.70;99.90;;;;;;4874562;29;38704;-73
2022/11/18 08:03:26;;;;;;;9.93;3.13;;;8.80;99.90;;;;;;4876993;29;37547;-73
2022/11/18 08:05:59;;;;;;;10.80;4.07;;;8.80;99.90;;;;;;4889264;29;38194;-73
2022/11/18 08:08:26;;;;;;;16.23;3.90;;;8.80;99.90;;;;;;4866782;29;37480;-73
2022/11/18 08:10:59;;;;;;;12.37;4.37;;;8.90;99.90;;;;;;4888102;29;39566;-72
2022/11/18 08:13:26;;;;;;;9.53;3.53;;;8.90;99.90;;;;;;4888338;29;39569;-72
2022/11/18 08:15:52;;;;;;;12.63;3.67;;;8.90;99.90;;;;;;4893136;29;37486;-72
2022/11/18 08:18:18;;;;;;;11.97;3.77;;;8.90;99.90;;;;;;4889655;29;38843;-72
2022/11/18 08:20:44;;;;;;;13.83;3.47;;;8.90;99.90;;;;;;4896457;29;37558;-73
2022/11/18 08:23:12;;;;;;;16.30;4.23;;;8.90;99.90;;;;;;4873634;29;37183;-73
2022/11/18 08:25:39;;;;;;;10.53;3.63;;;9.00;99.90;;;;;;4886844;29;38008;-72
2022/11/18 08:28:06;;;;;;;12.53;3.80;;;9.00;99.90;;;;;;4874399;29;35966;-73
2022/11/18 08:30:33;;;;;;;16.67;3.40;;;9.10;99.90;;;;;;4888716;29;40068;-73
2022/11/18 08:32:59;;;;;;;16.60;3.67;;;9.10;99.90;;;;;;4889093;29;38386;-72
2022/11/18 08:35:26;;;;;;;10.20;3.77;;;9.10;99.90;;;;;;4878683;29;36925;-73
2022/11/18 08:37:52;;;;;;;12.67;3.70;;;9.20;99.90;;;;;;4895697;29;36009;-74
2022/11/18 08:40:19;;;;;;;7.83;4.20;;;9.20;99.90;;;;;;4892505;29;38633;-73
2022/11/18 08:42:45;;;;;;;12.60;3.33;;;9.20;99.90;;;;;;4889386;29;37963;-72
2022/11/18 08:45:11;;;;;;;12.57;4.30;;;9.10;99.90;;;;;;4889676;29;38383;-73
2022/11/18 08:47:37;;;;;;;9.30;3.00;;;9.10;99.90;;;;;;4890266;29;38243;-73
2022/11/18 08:50:05;;;;;;;13.73;3.70;;;9.10;99.90;;;;;;4877921;29;37740;-71
2022/11/18 08:52:31;;;;;;;17.73;4.53;;;9.10;99.90;;;;;;4894384;29;48754;-73
2022/11/18 08:54:57;;;;;;;10.47;3.80;;;9.10;99.90;;;;;;4895323;29;37898;-72
2022/11/18 08:57:23;;;;;;;15.93;4.30;;;9.10;99.90;;;;;;4892695;29;36426;-72
2022/11/18 08:59:49;;;;;;;12.43;3.73;;;9.10;99.90;;;;;;4879937;29;39516;-73
2022/11/18 09:02:20;;;;;;;10.67;3.07;;;9.10;99.90;;;;;;4875190;29;37336;-74
2022/11/18 09:04:48;;;;;;;11.57;3.20;;;9.10;99.90;;;;;;4879820;29;37405;-73
2022/11/18 09:07:14;;;;;;;13.67;3.40;;;9.10;99.90;;;;;;4893983;29;36051;-73
2022/11/18 09:09:40;;;;;;;10.53;3.13;;;9.10;99.90;;;;;;4876348;29;39967;-73
2022/11/18 09:12:08;;;;;;;14.13;4.43;;;9.10;99.90;;;;;;4895058;29;38238;-72
2022/11/18 09:14:34;;;;;;;14.10;3.63;;;9.10;99.90;;;;;;4898386;29;38436;-72
2022/11/18 09:17:01;;;;;;;10.13;3.63;;;9.10;99.90;;;;;;4893386;29;37127;-71
2022/11/18 09:19:27;;;;;;;11.50;3.43;;;9.10;99.90;;;;;;4892900;29;47481;-73
2022/11/18 09:21:53;;;;;;;7.40;3.10;;;9.10;99.90;;;;;;4892826;29;38635;-74
2022/11/18 09:24:19;;;;;;;13.27;4.23;;;9.10;99.90;;;;;;4902210;29;37123;-73
2022/11/18 09:26:45;;;;;;;14.23;3.87;;;9.10;99.90;;;;;;4901202;29;35879;-74
2022/11/18 09:29:12;;;;;;;10.17;3.00;;;9.20;99.90;;;;;;4897126;29;38543;-71
2022/11/18 09:31:38;;;;;;;12.23;3.57;;;9.20;99.90;;;;;;4908734;29;37346;-73
2022/11/18 09:34:04;;;;;;;18.53;4.10;;;9.10;99.90;;;;;;4895122;29;38327;-72
2022/11/18 09:36:30;;;;;;;8.90;3.90;;;9.10;99.90;;;;;;4895902;29;36131;-72
2022/11/18 09:38:58;;;;;;;12.43;3.37;;;9.10;99.90;;;;;;4884266;29;38726;-74
2022/11/18 09:41:47;;;;;;;13.90;3.67;;;9.20;99.90;;;;;;4882345;29;37221;-75
2022/11/18 09:44:24;;;;;;;16.20;3.47;;;9.20;99.90;;;;;;4895148;29;39394;-73
2022/11/18 09:47:07;;;;;;;12.90;2.97;;;9.20;99.90;;;;;;4895955;29;36376;-74
2022/11/18 09:49:39;;;;;;;19.13;3.70;;;9.20;99.90;;;;;;4896821;29;48943;-74
2022/11/18 09:52:11;;;;;;;9.18;3.20;;;9.20;99.90;;;;;;4888370;29;38288;-73
2022/11/18 09:54:38;;;;;;;11.10;3.30;;;9.30;99.90;;;;;;4892852;29;38083;-73
2022/11/18 09:57:15;;;;;;;10.20;3.37;;;9.30;99.90;;;;;;4889486;29;38284;-73
2022/11/18 09:59:42;;;;;;;11.73;3.70;;;9.40;99.90;;;;;;4872572;29;37038;-73
2022/11/18 10:02:40;;;;;;;18.57;3.70;;;9.40;99.90;;;;;;4888227;29;38162;-72
2022/11/18 10:05:24;;;;;;;20.90;4.10;;;9.40;99.90;;;;;;4888311;29;38192;-72
2022/11/18 10:08:17;;;;;;;13.90;3.03;;;9.40;99.90;;;;;;4891809;29;37344;-73
2022/11/18 10:10:50;;;;;;;12.05;3.67;;;9.40;99.90;;;;;;4871501;29;47213;-71
2022/11/18 10:13:28;;;;;;;13.27;3.63;;;9.50;99.90;;;;;;4897508;29;38882;-72
2022/11/18 10:16:16;;;;;;;12.23;3.00;;;9.60;99.90;;;;;;4897072;29;37155;-73
2022/11/18 10:19:05;;;;;;;13.00;3.30;;;9.70;99.90;;;;;;4893258;29;47287;-74
2022/11/18 10:22:17;;;;;;;8.33;2.77;;;9.70;99.90;;;;;;4894026;29;48845;-72
2022/11/18 10:24:52;;;;;;;10.87;2.93;;;9.80;99.90;;;;;;4832701;29;48606;-73
2022/11/18 10:27:19;;;;;;;10.97;3.40;;;9.90;99.90;;;;;;4882600;29;38130;-73
2022/11/18 10:29:52;;;;;;;9.83;3.43;;;9.90;99.90;;;;;;4900098;29;37306;-73
2022/11/18 10:32:18;;;;;;;9.57;2.97;;;9.90;99.90;;;;;;4893734;29;38587;-73
2022/11/18 10:34:56;;;;;;;7.77;3.33;;;9.90;99.90;;;;;;4891405;29;37899;-73
2022/11/18 10:37:28;;;;;;;14.13;4.00;;;9.90;99.90;;;;;;4884067;29;37020;-73
2022/11/18 10:39:57;;;;;;;15.90;3.28;;;10.00;99.90;;;;;;4891126;29;38160;-74
2022/11/18 10:42:39;;;;;;;12.83;3.37;;;10.10;99.90;;;;;;4870616;29;39581;-74
2022/11/18 10:45:26;;;;;;;11.50;3.40;;;10.10;99.90;;;;;;4890117;29;38189;-72
2022/11/18 10:48:05;;;;;;;13.00;2.80;;;10.10;99.90;;;;;;4889608;29;37889;-74
2022/11/18 10:50:41;;;;;;;14.17;3.27;;;10.20;99.90;;;;;;4886755;29;48381;-73
2022/11/18 10:53:35;;;;;;;12.60;3.25;;;10.20;99.90;;;;;;4890288;29;39195;-74
2022/11/18 10:56:12;;;;;;;12.00;2.63;;;10.30;99.90;;;;;;4890999;29;38596;-73
2022/11/18 10:58:49;;;;;;;9.00;2.85;;;10.30;99.90;;;;;;4876064;29;47219;-74
2022/11/18 11:01:18;;;;;;;12.10;2.67;;;10.40;99.90;;;;;;4897074;29;37020;-73
2022/11/18 11:03:58;;;;;;;10.82;3.20;;;10.40;99.90;;;;;;4893742;29;39820;-73
2022/11/18 11:06:37;;;;;;;7.33;2.60;;;10.50;99.90;;;;;;4886384;29;38141;-74
2022/11/18 11:09:26;;;;;;;12.57;3.13;;;10.50;99.90;;;;;;4888779;29;38166;-75
2022/11/18 11:12:01;;;;;;;9.18;3.00;;;10.60;99.90;;;;;;4875054;29;20074;-73
2022/11/18 11:14:47;;;;;;;6.28;2.55;;;10.60;99.90;;;;;;4889025;29;37859;-75
2022/11/18 11:17:30;;;;;;;11.50;3.03;;;10.50;99.90;;;;;;4892670;29;38335;-74
2022/11/18 11:20:20;;;;;;;8.82;2.90;;;10.50;99.90;;;;;;4894168;29;38978;-74
2022/11/18 11:22:46;;;;;;;8.88;3.00;;;10.50;99.90;;;;;;4874150;29;47548;-75
2022/11/18 11:25:15;;;;;;;16.53;3.80;;;10.60;99.90;;;;;;4888865;29;38585;-74
2022/11/18 11:27:55;;;;;;;10.43;3.87;;;10.50;99.90;;;;;;4892431;29;37223;-73
2022/11/18 11:30:23;;;;;;;13.87;3.40;;;10.40;99.90;;;;;;4887142;29;37750;-73
2022/11/18 11:33:11;;;;;;;10.97;3.93;;;10.40;99.90;;;;;;4874231;29;36024;-73
2022/11/18 11:35:53;;;;;;;16.00;4.22;;;10.30;99.90;;;;;;4888726;29;47145;-72
2022/11/18 11:38:42;;;;;;;14.00;4.72;;;10.40;99.90;;;;;;4888402;29;39847;-72
2022/11/18 11:41:08;;;;;;;8.83;4.83;;;10.30;99.90;;;;;;4890612;29;37443;-73
2022/11/18 11:43:56;;;;;;;16.20;4.83;;;10.30;99.90;;;;;;4891065;29;35746;-73
2022/11/18 11:46:35;;;;;;;15.43;4.73;;;10.30;99.90;;;;;;4888528;29;37576;-73
2022/11/18 11:49:10;;;;;;;15.87;5.70;;;10.30;99.90;;;;;;4894572;29;38806;-73
2022/11/18 11:51:54;;;;;;;16.20;5.80;;;10.30;99.90;;;;;;4889868;29;47174;-73
2022/11/18 11:54:31;;;;;;;15.57;5.60;;;10.30;99.90;;;;;;4884715;29;36521;-73
2022/11/18 11:57:12;;;;;;;12.83;5.10;;;10.30;99.90;;;;;;4892005;29;38758;-72
2022/11/18 11:59:41;;;;;;;11.20;5.87;;;10.30;99.90;;;;;;4891608;29;48865;-74
2022/11/18 12:02:31;;;;;;;13.25;4.75;;;10.30;99.90;;;;;;4892699;29;38594;-73
2022/11/18 12:05:06;;;;;;;16.97;5.30;;;10.30;99.90;;;;;;4880013;29;36060;-73
2022/11/18 12:07:57;;;;;;;11.83;5.00;;;10.30;99.90;;;;;;4888920;29;47205;-75
2022/11/18 12:10:44;;;;;;;13.33;5.23;;;10.30;99.90;;;;;;4893336;29;37775;-73
2022/11/18 12:13:22;;;;;;;16.03;5.50;;;10.30;99.90;;;;;;4890945;29;36706;-73
2022/11/18 12:16:04;;;;;;;16.27;5.73;;;10.20;99.90;;;;;;4893825;29;35844;-74
2022/11/18 12:18:51;;;;;;;15.03;5.83;;;10.20;99.90;;;;;;4895933;29;46887;-72
2022/11/18 12:21:45;;;;;;;11.20;5.73;;;10.30;99.90;;;;;;4888096;29;39331;-74
2022/11/18 12:24:29;;;;;;;16.97;5.47;;;10.30;99.90;;;;;;4889087;29;38710;-74
2022/11/18 12:27:11;;;;;;;11.67;5.13;;;10.20;99.90;;;;;;4889242;29;37152;-73
2022/11/18 12:29:53;;;;;;;12.75;5.70;;;10.20;99.90;;;;;;4877725;29;47421;-76
2022/11/18 12:32:41;;;;;;;13.07;5.15;;;10.20;99.90;;;;;;4895672;29;38932;-72
2022/11/18 12:35:25;;;;;;;13.77;5.00;;;10.20;99.90;;;;;;4893818;29;38142;-74
2022/11/18 12:37:51;;;;;;;11.30;4.43;;;10.20;99.90;;;;;;4886321;29;35695;-77
2022/11/18 12:40:41;;;;;;;12.90;4.63;;;10.20;99.90;;;;;;4890807;29;38980;-74
2022/11/18 12:46:46;;;;;;;8.77;4.82;;;10.20;99.90;;;;;;4890994;29;37498;-74
2022/11/18 12:49:44;;;;;;;13.43;5.20;;;10.20;99.90;;;;;;4883229;29;36057;-75
2022/11/18 12:52:28;;;;;;;13.60;5.77;;;10.20;99.90;;;;;;4870591;29;38761;-72
2022/11/18 12:54:57;;;;;;;13.03;5.00;;;10.20;99.90;;;;;;4885226;29;39355;-74
2022/11/18 12:57:39;;;;;;;12.70;4.83;;;10.10;99.90;;;;;;4873849;29;38279;-73
2022/11/18 13:00:15;;;;;;;8.63;4.90;;;10.10;99.90;;;;;;4886876;29;35884;-73
2022/11/18 13:02:53;;;;;;;21.27;5.30;;;10.20;99.90;;;;;;4892329;29;48372;-73
2022/11/18 13:05:28;;;;;;;11.43;4.80;;;10.20;99.90;;;;;;4890177;29;38201;-73
2022/11/18 13:08:12;;;;;;;14.40;5.30;;;10.20;99.90;;;;;;4894323;29;38140;-73
2022/11/18 13:11:43;;;;;;;15.23;5.50;;;10.20;99.90;;;;;;4890787;29;48327;-74
2022/11/18 13:13:41;;;;;;;14.00;4.93;;;10.30;99.90;;;;;;4883290;29;48594;-73
2022/11/18 13:19:04;;;;;;;11.00;5.57;;;10.30;99.90;;;;;;4887617;29;37735;-76
2022/11/18 13:24:18;;;;;;;14.00;6.17;;;10.40;99.90;;;;;;4881567;29;40015;-74
2022/11/18 13:26:45;;;;;;;21.83;6.87;;;10.40;99.90;;;;;;4888324;29;39541;-74
2022/11/18 13:29:38;;;;;;;13.17;6.20;;;10.30;99.90;;;;;;4889426;29;38095;-74
2022/11/18 13:32:26;;;;;;;10.43;5.93;;;10.40;99.90;;;;;;4881851;29;36837;-75
2022/11/18 13:35:10;;;;;;;13.50;6.60;;;10.40;99.90;;;;;;4873046;29;38280;-74
2022/11/18 13:37:51;;;;;;;14.50;6.60;;;10.40;99.90;;;;;;4887703;29;49932;-74
2022/11/18 13:40:30;;;;;;;11.03;6.80;;;10.30;99.90;;;;;;4890589;29;36321;-76
2022/11/18 13:42:56;;;;;;;14.47;6.97;;;10.30;99.90;;;;;;4890446;29;37333;-74
2022/11/18 13:45:26;;;;;;;14.43;7.27;;;10.30;99.90;;;;;;4885566;29;39648;-74